Time;durP1;ratioP1;P1;durP2;ratioP2;P2;SDS_P1;SDS_P2;PMS_P1;PMS_P2;Temp;Humidity;BMP_temperature;BMP_pressure;BME280_temperature;BME280_humidity;BME280_pressure;Samples;Min_cycle;Max_cycle;Signal;HPM_P1;HPM_P2
2023/12/04 00:00:21;;;;;;;;;;;22.80;99.90;;;;;;5094269;28;19915;-67
2023/12/04 00:02:48;;;;;;;;;;;22.90;99.90;;;;;;5094153;28;19908;-65
2023/12/04 00:05:14;;;;;;;;;;;23.10;99.90;;;;;;5094214;28;19908;-64
2023/12/04 00:07:41;;;;;;;;;;;23.30;99.90;;;;;;5094031;28;19908;-63
2023/12/04 00:10:08;;;;;;;;;;;23.50;99.90;;;;;;5093870;28;19962;-65
2023/12/04 00:12:35;;;;;;;;;;;23.60;99.90;;;;;;5094310;28;19930;-65
2023/12/04 00:15:01;;;;;;;;;;;23.70;99.90;;;;;;5094136;28;19908;-69
2023/12/04 00:17:28;;;;;;;;;;;24.10;99.90;;;;;;5093755;28;19916;-70
2023/12/04 00:19:55;;;;;;;;;;;24.40;99.90;;;;;;5093310;28;19915;-63
2023/12/04 00:22:23;;;;;;;;;;;24.90;99.90;;;;;;5093970;28;20349;-63
2023/12/04 00:24:50;;;;;;;;;;;25.10;99.90;;;;;;5093742;28;19908;-63
2023/12/04 00:27:16;;;;;;;;;;;25.30;99.90;;;;;;5093794;28;19970;-64
2023/12/04 00:29:43;;;;;;;;;;;25.60;99.90;;;;;;5093869;28;19935;-64
2023/12/04 00:32:10;;;;;;;;;;;25.90;99.90;;;;;;5094271;28;19962;-67
2023/12/04 00:34:36;;;;;;;;;;;26.10;99.90;;;;;;5075541;28;19908;-64
2023/12/04 00:37:03;;;;;;;;;;;26.50;99.30;;;;;;5093768;28;19920;-65
2023/12/04 00:39:30;;;;;;;;;;;26.20;99.10;;;;;;5093492;28;20381;-65
2023/12/04 00:41:56;;;;;;;;;;;25.80;99.40;;;;;;5093761;28;19908;-67
2023/12/04 00:44:23;;;;;;;;;;;25.80;99.40;;;;;;5093518;28;19966;-64
2023/12/04 00:46:49;;;;;;;;;;;25.70;99.40;;;;;;5093456;28;20321;-63
2023/12/04 00:49:16;;;;;;;;;;;25.70;99.80;;;;;;5093492;28;19908;-64
2023/12/04 00:51:43;;;;;;;;;;;25.60;99.70;;;;;;5093483;28;19916;-64
2023/12/04 00:54:09;;;;;;;;;;;25.50;98.90;;;;;;5093761;28;19912;-64
2023/12/04 00:56:38;;;;;;;;;;;25.30;99.10;;;;;;5093547;28;20417;-66
2023/12/04 00:59:09;;;;;;;;;;;24.90;99.90;;;;;;5092379;28;20202;-65
2023/12/04 01:01:36;;;;;;;;;;;24.70;99.90;;;;;;5091972;28;19912;-64
2023/12/04 01:04:03;;;;;;;;;;;24.60;99.90;;;;;;5092796;28;19914;-63
2023/12/04 01:06:30;;;;;;;;;;;24.60;99.90;;;;;;5093280;28;20264;-69
2023/12/04 01:08:57;;;;;;;;;;;24.60;99.90;;;;;;5093060;28;19909;-65
2023/12/04 01:11:23;;;;;;;;;;;24.60;99.90;;;;;;5093339;28;19912;-64
2023/12/04 01:13:50;;;;;;;;;;;24.60;99.90;;;;;;5093026;28;19908;-64
2023/12/04 01:16:19;;;;;;;;;;;24.70;99.90;;;;;;5093099;28;20352;-67
2023/12/04 01:18:46;;;;;;;;;;;24.60;99.90;;;;;;5092618;28;20003;-69
2023/12/04 01:21:14;;;;;;;;;;;24.60;99.90;;;;;;5091651;28;19912;-66
2023/12/04 01:23:40;;;;;;;;;;;24.80;99.90;;;;;;5093340;28;19908;-72
2023/12/04 01:26:07;;;;;;;;;;;25.00;99.90;;;;;;5092875;28;20025;-63
2023/12/04 01:28:34;;;;;;;;;;;25.20;99.90;;;;;;5092895;28;19923;-65
2023/12/04 01:31:01;;;;;;;;;;;25.40;99.90;;;;;;5092268;28;19912;-69
2023/12/04 01:33:27;;;;;;;;;;;25.60;99.90;;;;;;5092919;28;19909;-67
2023/12/04 01:35:54;;;;;;;;;;;25.50;99.70;;;;;;5092829;28;19923;-66
2023/12/04 01:38:21;;;;;;;;;;;25.70;99.60;;;;;;5092892;28;19908;-65
2023/12/04 01:40:47;;;;;;;;;;;25.90;99.60;;;;;;5092838;28;19915;-68
2023/12/04 01:43:14;;;;;;;;;;;26.00;98.50;;;;;;5092969;28;20361;-71
2023/12/04 01:45:41;;;;;;;;;;;26.00;98.20;;;;;;5093249;28;19908;-64
2023/12/04 01:48:09;;;;;;;;;;;26.00;98.70;;;;;;5094909;28;19915;-63
2023/12/04 01:50:36;;;;;;;;;;;26.20;98.60;;;;;;5094651;28;20387;-66
2023/12/04 01:53:04;;;;;;;;;;;26.80;98.20;;;;;;5092816;28;19931;-64
2023/12/04 01:55:33;;;;;;;;;;;27.30;96.90;;;;;;5092737;28;19923;-65
2023/12/04 01:58:01;;;;;;;;;;;27.70;96.40;;;;;;5092642;28;19912;-65
2023/12/04 02:00:27;;;;;;;;;;;28.00;96.10;;;;;;5092471;28;20387;-64
2023/12/04 02:02:54;;;;;;;;;;;28.30;96.40;;;;;;5092677;28;19977;-64
2023/12/04 02:05:22;;;;;;;;;;;28.30;96.10;;;;;;5092430;28;19943;-66
2023/12/04 02:07:49;;;;;;;;;;;28.40;95.30;;;;;;5091276;28;19912;-65
2023/12/04 02:10:16;;;;;;;;;;;28.50;95.30;;;;;;5092503;28;19915;-66
2023/12/04 02:12:43;;;;;;;;;;;28.30;94.60;;;;;;5092812;28;20015;-65
2023/12/04 02:15:13;;;;;;;;;;;28.10;94.50;;;;;;5092385;28;20348;-64
2023/12/04 02:17:40;;;;;;;;;;;27.90;93.90;;;;;;5091081;28;19923;-65
2023/12/04 02:20:11;;;;;;;;;;;27.60;94.80;;;;;;5092415;28;19944;-66
2023/12/04 02:22:38;;;;;;;;;;;27.40;95.10;;;;;;5092479;28;19908;-65
2023/12/04 02:25:06;;;;;;;;;;;27.30;94.90;;;;;;5092023;28;19915;-70
2023/12/04 02:27:37;;;;;;;;;;;27.40;94.90;;;;;;5092049;28;20087;-65
2023/12/04 02:30:05;;;;;;;;;;;27.80;95.30;;;;;;5092427;28;19909;-68
2023/12/04 02:32:35;;;;;;;;;;;28.20;94.30;;;;;;5092415;28;20007;-66
2023/12/04 02:35:04;;;;;;;;;;;28.40;94.00;;;;;;5092397;28;19941;-65
2023/12/04 02:37:32;;;;;;;;;;;28.40;95.20;;;;;;5092178;28;19923;-68
2023/12/04 02:39:59;;;;;;;;;;;28.60;93.90;;;;;;5091273;28;19915;-65
2023/12/04 02:42:26;;;;;;;;;;;28.90;94.50;;;;;;5094208;28;20368;-65
2023/12/04 02:44:53;;;;;;;;;;;29.20;93.80;;;;;;5095713;28;20176;-66
2023/12/04 02:47:23;;;;;;;;;;;29.60;92.70;;;;;;5077758;28;20006;-66
2023/12/04 02:49:54;;;;;;;;;;;29.80;92.10;;;;;;5095523;28;19912;-68
2023/12/04 02:52:20;;;;;;;;;;;29.70;92.50;;;;;;5095858;28;20361;-68
2023/12/04 02:54:50;;;;;;;;;;;29.30;91.80;;;;;;5095786;28;19908;-64
2023/12/04 02:57:17;;;;;;;;;;;29.00;92.50;;;;;;5095637;28;20340;-64
2023/12/04 02:59:44;;;;;;;;;;;28.80;92.60;;;;;;5095672;28;20008;-65
2023/12/04 03:02:11;;;;;;;;;;;28.80;92.50;;;;;;5095532;28;19915;-64
2023/12/04 03:04:38;;;;;;;;;;;28.50;92.20;;;;;;5095451;28;19912;-64
2023/12/04 03:07:04;;;;;;;;;;;28.20;92.70;;;;;;5095517;28;19908;-65
2023/12/04 03:09:31;;;;;;;;;;;28.20;93.00;;;;;;5095329;28;19908;-66
2023/12/04 03:11:57;;;;;;;;;;;28.70;92.70;;;;;;5095435;28;19955;-67
2023/12/04 03:14:25;;;;;;;;;;;30.00;92.60;;;;;;5095237;28;19912;-64
2023/12/04 03:16:51;;;;;;;;;;;31.20;90.40;;;;;;5095053;28;19916;-66
2023/12/04 03:19:18;;;;;;;;;;;31.60;90.50;;;;;;5095372;28;19908;-64
2023/12/04 03:21:45;;;;;;;;;;;32.50;88.50;;;;;;5095358;28;19908;-64
2023/12/04 03:24:11;;;;;;;;;;;33.50;83.70;;;;;;5094990;28;20344;-65
2023/12/04 03:26:38;;;;;;;;;;;34.00;81.70;;;;;;5094870;28;20395;-67
2023/12/04 03:29:05;;;;;;;;;;;34.60;80.20;;;;;;5094961;28;19908;-64
2023/12/04 03:31:31;;;;;;;;;;;34.70;81.70;;;;;;5094898;28;19908;-67
2023/12/04 03:33:58;;;;;;;;;;;35.10;80.00;;;;;;5094997;28;19997;-66
2023/12/04 03:36:24;;;;;;;;;;;35.70;76.90;;;;;;5094941;28;20350;-66
2023/12/04 03:38:51;;;;;;;;;;;36.50;75.10;;;;;;5094894;28;20002;-66
2023/12/04 03:41:18;;;;;;;;;;;37.30;74.70;;;;;;5094889;28;19908;-69
2023/12/04 03:43:44;;;;;;;;;;;38.10;72.50;;;;;;5094710;28;20281;-65
2023/12/04 03:46:11;;;;;;;;;;;38.20;69.60;;;;;;5094765;28;19954;-69
2023/12/04 03:48:37;;;;;;;;;;;37.80;70.60;;;;;;5094634;28;19908;-67
2023/12/04 03:51:05;;;;;;;;;;;37.70;69.30;;;;;;5094676;28;19911;-67
2023/12/04 03:53:31;;;;;;;;;;;37.70;69.40;;;;;;5093788;28;19908;-71
2023/12/04 03:55:59;;;;;;;;;;;38.30;68.80;;;;;;5094535;28;20411;-70
2023/12/04 03:58:25;;;;;;;;;;;37.10;71.40;;;;;;5094459;28;19908;-68
2023/12/04 04:00:52;;;;;;;;;;;37.70;68.60;;;;;;5094648;28;20354;-63
2023/12/04 04:03:19;;;;;;;;;;;38.10;69.80;;;;;;5094506;28;19908;-66
2023/12/04 04:05:45;;;;;;;;;;;37.90;67.70;;;;;;5094455;28;19912;-67
2023/12/04 04:08:12;;;;;;;;;;;37.30;67.50;;;;;;5094276;28;19908;-65
2023/12/04 04:10:38;;;;;;;;;;;37.90;67.70;;;;;;5094048;28;19919;-69
2023/12/04 04:13:05;;;;;;;;;;;37.20;65.40;;;;;;5094143;28;19953;-64
2023/12/04 04:15:32;;;;;;;;;;;35.10;67.90;;;;;;5076082;28;19915;-65
2023/12/04 04:17:58;;;;;;;;;;;34.90;70.00;;;;;;5094091;28;19925;-69
2023/12/04 04:20:25;;;;;;;;;;;34.80;70.90;;;;;;5093625;28;20006;-69
2023/12/04 04:22:53;;;;;;;;;;;35.00;70.60;;;;;;5093136;28;19908;-68
2023/12/04 04:25:22;;;;;;;;;;;35.60;68.30;;;;;;5093404;28;20458;-67
2023/12/04 04:27:48;;;;;;;;;;;34.90;68.40;;;;;;5093267;28;20300;-64
2023/12/04 04:30:16;;;;;;;;;;;35.10;69.20;;;;;;5093804;28;20360;-66
2023/12/04 04:32:42;;;;;;;;;;;35.90;70.20;;;;;;5093707;28;19908;-67
2023/12/04 04:35:09;;;;;;;;;;;35.00;69.20;;;;;;5093817;28;20397;-70
2023/12/04 04:37:36;;;;;;;;;;;34.20;68.90;;;;;;5092331;28;19924;-64
2023/12/04 04:40:03;;;;;;;;;;;33.60;71.20;;;;;;5093612;28;19908;-64
2023/12/04 04:42:30;;;;;;;;;;;33.30;71.10;;;;;;5089673;28;19919;-64
2023/12/04 04:44:56;;;;;;;;;;;34.50;73.50;;;;;;5092172;28;20375;-65
2023/12/04 04:47:23;;;;;;;;;;;35.20;69.70;;;;;;5092846;28;19923;-65
2023/12/04 04:49:50;;;;;;;;;;;35.80;69.00;;;;;;5092573;28;19908;-66
2023/12/04 04:52:16;;;;;;;;;;;37.30;66.90;;;;;;5107291;28;19922;-65
2023/12/04 04:54:43;;;;;;;;;;;36.60;66.30;;;;;;5105709;28;19908;-66
2023/12/04 04:57:10;;;;;;;;;;;35.60;68.40;;;;;;5090674;28;19920;-66
2023/12/04 04:59:36;;;;;;;;;;;34.10;69.20;;;;;;5092371;28;19944;-65
2023/12/04 05:02:03;;;;;;;;;;;34.30;69.40;;;;;;5092559;28;19912;-64
2023/12/04 05:04:30;;;;;;;;;;;33.30;70.20;;;;;;5092256;28;19919;-64
2023/12/04 05:06:56;;;;;;;;;;;32.00;73.50;;;;;;5104268;28;19912;-67
2023/12/04 05:09:23;;;;;;;;;;;33.00;72.90;;;;;;5091880;28;19912;-67
2023/12/04 05:11:49;;;;;;;;;;;33.10;72.00;;;;;;5092441;28;19908;-71
2023/12/04 05:14:16;;;;;;;;;;;31.70;74.80;;;;;;5092227;28;20357;-64
2023/12/04 05:16:43;;;;;;;;;;;32.90;73.00;;;;;;5089585;28;19920;-65
2023/12/04 05:19:09;;;;;;;;;;;32.90;71.50;;;;;;5090516;28;19912;-68
2023/12/04 05:21:36;;;;;;;;;;;32.80;72.80;;;;;;5092561;28;19909;-65
2023/12/04 05:24:02;;;;;;;;;;;32.00;73.00;;;;;;5092924;28;19908;-64
2023/12/04 05:26:29;;;;;;;;;;;31.40;74.30;;;;;;5092681;28;19919;-64
2023/12/04 05:28:56;;;;;;;;;;;31.70;74.00;;;;;;5092554;28;19915;-64
2023/12/04 05:31:23;;;;;;;;;;;31.60;75.20;;;;;;5093345;28;19908;-65
2023/12/04 05:33:49;;;;;;;;;;;33.10;74.60;;;;;;5093029;28;19911;-66
2023/12/04 05:36:16;;;;;;;;;;;32.70;71.30;;;;;;5092968;28;19938;-69
2023/12/04 05:38:42;;;;;;;;;;;31.60;74.20;;;;;;5092732;28;19953;-64
2023/12/04 05:41:09;;;;;;;;;;;31.30;75.00;;;;;;5093378;28;19915;-63
2023/12/04 05:43:36;;;;;;;;;;;32.20;75.60;;;;;;5093128;28;19912;-63
2023/12/04 05:46:03;;;;;;;;;;;32.00;74.00;;;;;;5094750;28;19908;-62
2023/12/04 05:48:29;;;;;;;;;;;31.70;74.00;;;;;;5093382;28;19915;-64
2023/12/04 05:50:56;;;;;;;;;;;31.20;75.90;;;;;;5091043;28;19909;-65
2023/12/04 05:53:23;;;;;;;;;;;30.80;76.20;;;;;;5093077;28;19915;-67
2023/12/04 05:55:49;;;;;;;;;;;29.90;77.00;;;;;;5092341;28;19917;-64
2023/12/04 05:58:16;;;;;;;;;;;28.90;80.10;;;;;;5094916;28;19912;-64
2023/12/04 06:00:43;;;;;;;;;;;28.90;80.70;;;;;;5093659;28;19908;-63
2023/12/04 06:03:09;;;;;;;;;;;28.10;80.80;;;;;;5092858;28;19908;-65
2023/12/04 06:05:36;;;;;;;;;;;28.20;84.00;;;;;;5091913;28;20376;-66
2023/12/04 06:08:03;;;;;;;;;;;27.90;82.70;;;;;;5092331;28;19954;-62
2023/12/04 06:10:30;;;;;;;;;;;28.00;84.60;;;;;;5092531;28;19912;-71
2023/12/04 06:12:56;;;;;;;;;;;27.50;84.20;;;;;;5092733;28;20011;-69
2023/12/04 06:15:23;;;;;;;;;;;27.30;84.60;;;;;;5092207;28;19954;-62
2023/12/04 06:17:50;;;;;;;;;;;27.60;84.70;;;;;;5094342;28;19919;-65
2023/12/04 06:20:16;;;;;;;;;;;27.50;85.30;;;;;;5096351;28;19908;-63
2023/12/04 06:22:43;;;;;;;;;;;27.30;85.50;;;;;;5096592;28;19952;-64
2023/12/04 06:25:10;;;;;;;;;;;27.20;84.40;;;;;;5096626;28;19908;-65
2023/12/04 06:27:38;;;;;;;;;;;26.90;86.20;;;;;;5096552;28;20276;-67
2023/12/04 06:30:06;;;;;;;;;;;26.80;86.20;;;;;;5095642;28;19912;-65
2023/12/04 06:32:34;;;;;;;;;;;26.70;86.80;;;;;;5095880;28;20396;-65
2023/12/04 06:35:01;;;;;;;;;;;26.70;87.60;;;;;;5096375;28;19993;-68
2023/12/04 06:37:28;;;;;;;;;;;26.70;86.80;;;;;;5095725;28;20003;-67
2023/12/04 06:39:57;;;;;;;;;;;26.70;88.30;;;;;;5095326;28;19969;-65
2023/12/04 06:42:24;;;;;;;;;;;26.30;87.60;;;;;;5095891;28;20351;-64
2023/12/04 06:44:51;;;;;;;;;;;26.10;88.50;;;;;;5095931;28;19915;-64
2023/12/04 06:47:18;;;;;;;;;;;26.20;89.80;;;;;;5095813;28;20268;-70
2023/12/04 06:49:45;;;;;;;;;;;26.30;90.10;;;;;;5095562;28;19909;-65
2023/12/04 06:52:11;;;;;;;;;;;26.60;88.80;;;;;;5093841;28;19975;-66
2023/12/04 06:54:38;;;;;;;;;;;26.30;87.90;;;;;;5080187;28;19955;-65
2023/12/04 06:57:05;;;;;;;;;;;26.10;88.50;;;;;;5075189;28;20418;-69
2023/12/04 06:59:31;;;;;;;;;;;25.60;89.70;;;;;;5075444;28;20275;-77
2023/12/04 07:01:58;;;;;;;;;;;25.30;89.80;;;;;;5086589;28;20007;-71
2023/12/04 07:04:25;;;;;;;;;;;25.40;90.50;;;;;;5095545;28;19913;-65
2023/12/04 07:06:51;;;;;;;;;;;25.50;90.60;;;;;;5095563;28;20285;-66
2023/12/04 07:09:18;;;;;;;;;;;25.90;90.60;;;;;;5092456;28;19908;-66
2023/12/04 07:11:45;;;;;;;;;;;25.90;90.00;;;;;;5086171;28;19912;-66
2023/12/04 07:14:12;;;;;;;;;;;25.90;90.00;;;;;;5094466;28;20307;-64
2023/12/04 07:16:42;;;;;;;;;;;25.70;90.20;;;;;;5094877;28;20444;-75
2023/12/04 07:19:09;;;;;;;;;;;25.40;90.30;;;;;;5094545;28;19914;-71
2023/12/04 07:21:37;;;;;;;;;;;25.50;90.80;;;;;;5086563;28;19931;-68
2023/12/04 07:24:03;;;;;;;;;;;25.50;91.30;;;;;;5074764;28;19908;-67
2023/12/04 07:26:31;;;;;;;;;;;25.60;90.50;;;;;;5074417;28;19920;-66
2023/12/04 07:28:58;;;;;;;;;;;25.50;90.50;;;;;;5059811;28;20011;-68
2023/12/04 07:31:26;;;;;;;;;;;25.30;91.50;;;;;;5074678;28;19913;-70
2023/12/04 07:33:53;;;;;;;;;;;25.10;91.30;;;;;;5093677;28;20387;-77
2023/12/04 07:36:20;;;;;;;;;;;24.90;91.50;;;;;;5094637;28;20365;-66
2023/12/04 07:38:47;;;;;;;;;;;24.90;91.90;;;;;;5085346;28;19913;-64
2023/12/04 07:41:13;;;;;;;;;;;24.80;91.80;;;;;;5081995;28;19921;-65
2023/12/04 07:43:40;;;;;;;;;;;24.60;92.40;;;;;;5089965;28;19951;-65
2023/12/04 07:46:09;;;;;;;;;;;24.50;92.50;;;;;;5092511;28;19922;-66
2023/12/04 07:48:35;;;;;;;;;;;24.40;92.70;;;;;;5090195;28;20336;-69
2023/12/04 07:51:02;;;;;;;;;;;24.10;93.10;;;;;;5072138;28;19995;-63
2023/12/04 07:53:29;;;;;;;;;;;23.90;93.40;;;;;;5078218;28;19912;-63
2023/12/04 07:55:55;;;;;;;;;;;23.70;93.90;;;;;;5091185;28;19920;-63
2023/12/04 07:58:22;;;;;;;;;;;23.70;94.10;;;;;;5092790;28;19919;-63
2023/12/04 08:00:50;;;;;;;;;;;23.70;94.60;;;;;;5094223;28;19912;-63
2023/12/04 08:03:16;;;;;;;;;;;23.70;94.50;;;;;;5093039;28;20015;-65
2023/12/04 08:05:43;;;;;;;;;;;23.70;94.60;;;;;;5092938;28;19908;-66
2023/12/04 08:08:09;;;;;;;;;;;23.70;94.70;;;;;;5093628;28;20385;-67
2023/12/04 08:10:37;;;;;;;;;;;23.70;94.80;;;;;;5093207;28;19913;-70
2023/12/04 08:13:06;;;;;;;;;;;23.60;94.80;;;;;;5088534;28;19919;-65
2023/12/04 08:15:32;;;;;;;;;;;23.40;95.20;;;;;;5092715;28;20388;-66
2023/12/04 08:18:00;;;;;;;;;;;23.20;95.80;;;;;;5092886;28;19916;-63
2023/12/04 08:20:27;;;;;;;;;;;23.10;96.40;;;;;;5092795;28;19909;-64
2023/12/04 08:22:54;;;;;;;;;;;23.20;96.80;;;;;;5087952;28;19923;-64
2023/12/04 08:25:21;;;;;;;;;;;23.40;96.80;;;;;;5082067;28;19908;-63
2023/12/04 08:27:49;;;;;;;;;;;23.50;96.20;;;;;;5081531;28;19924;-64
2023/12/04 08:30:16;;;;;;;;;;;23.30;96.40;;;;;;5085934;28;19912;-67
2023/12/04 08:32:43;;;;;;;;;;;23.30;96.80;;;;;;5082644;28;19913;-71
2023/12/04 08:35:10;;;;;;;;;;;23.20;97.00;;;;;;5081502;28;19908;-66
2023/12/04 08:37:36;;;;;;;;;;;23.00;97.20;;;;;;5083152;28;19945;-64
2023/12/04 08:40:03;;;;;;;;;;;23.00;97.60;;;;;;5081747;28;19908;-64
2023/12/04 08:42:30;;;;;;;;;;;23.00;97.40;;;;;;5085334;28;19920;-68
2023/12/04 08:44:58;;;;;;;;;;;23.00;97.70;;;;;;5081612;28;19916;-64
2023/12/04 08:47:25;;;;;;;;;;;22.80;97.80;;;;;;5081829;28;19954;-66
2023/12/04 08:49:52;;;;;;;;;;;22.90;98.20;;;;;;5084258;28;19944;-71
2023/12/04 08:52:18;;;;;;;;;;;22.80;98.10;;;;;;5085755;28;19919;-68
2023/12/04 08:54:45;;;;;;;;;;;22.80;98.60;;;;;;5089289;28;19948;-68
2023/12/04 08:57:11;;;;;;;;;;;22.70;98.60;;;;;;5090679;28;19921;-76
2023/12/04 08:59:38;;;;;;;;;;;22.50;99.00;;;;;;5087475;28;19919;-68
2023/12/04 09:02:05;;;;;;;;;;;22.40;99.50;;;;;;5091134;28;19912;-63
2023/12/04 09:04:32;;;;;;;;;;;22.30;99.80;;;;;;5088259;28;19908;-66
2023/12/04 09:06:58;;;;;;;;;;;22.20;99.90;;;;;;5092025;28;19907;-67
2023/12/04 09:09:25;;;;;;;;;;;22.20;99.90;;;;;;5090900;28;19912;-70
2023/12/04 09:11:52;;;;;;;;;;;22.10;99.90;;;;;;5092403;28;19913;-70
2023/12/04 09:14:18;;;;;;;;;;;22.10;99.90;;;;;;5083804;28;20002;-67
2023/12/04 09:16:45;;;;;;;;;;;22.20;99.90;;;;;;5084086;28;19967;-75
2023/12/04 09:19:11;;;;;;;;;;;22.30;99.90;;;;;;5078355;28;20372;-73
2023/12/04 09:21:38;;;;;;;;;;;22.30;99.90;;;;;;5083498;28;19951;-73
2023/12/04 09:24:05;;;;;;;;;;;22.30;99.90;;;;;;5090610;28;19956;-69
2023/12/04 09:26:32;;;;;;;;;;;22.10;99.90;;;;;;5074750;28;19928;-68
2023/12/04 09:28:58;;;;;;;;;;;22.00;99.90;;;;;;5091866;28;19916;-78
2023/12/04 09:31:25;;;;;;;;;;;22.00;99.90;;;;;;5086536;28;19913;-70
2023/12/04 09:33:51;;;;;;;;;;;21.90;99.90;;;;;;5077207;28;20345;-66
2023/12/04 09:36:18;;;;;;;;;;;22.00;99.90;;;;;;5088006;28;19923;-67
2023/12/04 09:38:45;;;;;;;;;;;21.90;99.90;;;;;;5086703;28;19912;-67
2023/12/04 09:41:12;;;;;;;;;;;21.90;99.90;;;;;;5089721;28;19916;-63
2023/12/04 09:43:41;;;;;;;;;;;21.80;99.90;;;;;;5087665;28;19916;-61
2023/12/04 09:46:08;;;;;;;;;;;21.70;99.90;;;;;;5087500;28;19943;-63
2023/12/04 09:48:36;;;;;;;;;;;21.60;99.90;;;;;;5084082;28;19935;-63
2023/12/04 09:51:02;;;;;;;;;;;21.60;99.90;;;;;;5091179;28;20007;-63
2023/12/04 09:53:30;;;;;;;;;;;21.50;99.90;;;;;;5095336;28;20388;-64
2023/12/04 09:55:58;;;;;;;;;;;21.50;99.90;;;;;;5095812;28;19911;-64
2023/12/04 09:58:29;;;;;;;;;;;21.50;99.90;;;;;;5093912;28;19912;-62
2023/12/04 10:00:56;;;;;;;;;;;21.50;99.90;;;;;;5095469;28;20041;-64
2023/12/04 10:03:23;;;;;;;;;;;21.60;99.90;;;;;;5095569;28;19908;-66
2023/12/04 10:05:50;;;;;;;;;;;21.60;99.90;;;;;;5103283;28;19912;-66
2023/12/04 10:08:17;;;;;;;;;;;21.60;99.90;;;;;;5107669;28;19908;-64
2023/12/04 10:10:44;;;;;;;;;;;21.60;99.90;;;;;;5083361;28;19923;-68
2023/12/04 10:13:11;;;;;;;;;;;21.70;99.90;;;;;;5075333;28;19913;-65
2023/12/04 10:15:51;;;;;;;;;;;21.70;99.90;;;;;;5095846;28;19999;-69
2023/12/04 10:18:29;;;;;;;;;;;21.70;99.90;;;;;;5077905;28;19916;-66
2023/12/04 10:20:55;;;;;;;;;;;21.60;99.90;;;;;;5077863;28;19908;-72
2023/12/04 10:23:22;;;;;;;;;;;21.60;99.90;;;;;;5076570;28;20353;-64
2023/12/04 10:25:50;;;;;;;;;;;21.60;99.90;;;;;;5095352;28;19915;-63
2023/12/04 10:28:18;;;;;;;;;;;21.60;99.90;;;;;;5094976;28;20372;-63
2023/12/04 10:30:45;;;;;;;;;;;21.60;99.90;;;;;;5095072;28;20353;-62
2023/12/04 10:33:13;;;;;;;;;;;21.60;99.90;;;;;;5095121;28;19958;-64
2023/12/04 10:35:40;;;;;;;;;;;21.60;99.90;;;;;;5075456;28;19912;-62
2023/12/04 10:38:08;;;;;;;;;;;21.50;99.90;;;;;;5082436;28;20277;-73
2023/12/04 10:40:36;;;;;;;;;;;21.50;99.90;;;;;;5086359;28;19919;-67
2023/12/04 10:43:12;;;;;;;;;;;21.40;99.90;;;;;;5075046;28;19921;-67
2023/12/04 10:45:40;;;;;;;;;;;21.50;99.90;;;;;;5095619;28;20337;-69
2023/12/04 10:48:07;;;;;;;;;;;21.40;99.90;;;;;;5095719;28;20387;-67
2023/12/04 10:50:35;;;;;;;;;;;21.40;99.90;;;;;;5077599;28;20006;-64
2023/12/04 10:53:04;;;;;;;;;;;21.40;99.90;;;;;;5094886;28;19921;-65
2023/12/04 10:55:31;;;;;;;;;;;21.40;99.90;;;;;;5095189;28;19914;-75
2023/12/04 10:57:58;;;;;;;;;;;21.40;99.90;;;;;;5095373;28;19968;-73
2023/12/04 11:00:27;;;;;;;;;;;21.40;99.90;;;;;;5095110;28;20365;-67
2023/12/04 11:02:56;;;;;;;;;;;21.30;99.90;;;;;;5081346;28;19917;-64
2023/12/04 11:05:24;;;;;;;;;;;21.30;99.90;;;;;;5092043;28;19919;-65
2023/12/04 11:08:02;;;;;;;;;;;21.20;99.90;;;;;;5093583;28;19912;-70
2023/12/04 11:10:29;;;;;;;;;;;21.20;99.90;;;;;;5087494;28;20316;-68
2023/12/04 11:13:14;;;;;;;;;;;21.20;99.90;;;;;;5091975;28;19957;-68
2023/12/04 11:15:50;;;;;;;;;;;21.20;99.90;;;;;;5091760;28;19963;-68
2023/12/04 11:18:17;;;;;;;;;;;21.20;99.90;;;;;;5093793;28;19964;-66
2023/12/04 11:21:03;;;;;;;;;;;21.30;99.90;;;;;;5093956;28;20353;-65
2023/12/04 11:23:31;;;;;;;;;;;21.30;99.90;;;;;;5093167;28;19919;-71
2023/12/04 11:25:59;;;;;;;;;;;21.30;99.90;;;;;;5094861;28;20006;-70
2023/12/04 11:28:27;;;;;;;;;;;21.20;99.90;;;;;;5094881;28;19998;-71
2023/12/04 11:30:54;;;;;;;;;;;21.30;99.90;;;;;;5094953;28;20418;-65
2023/12/04 11:33:21;;;;;;;;;;;21.20;99.90;;;;;;5094278;28;19919;-65
2023/12/04 11:35:47;;;;;;;;;;;21.20;99.90;;;;;;5094988;28;19912;-67
2023/12/04 11:38:15;;;;;;;;;;;21.20;99.90;;;;;;5094870;28;19950;-75
2023/12/04 11:40:45;;;;;;;;;;;21.20;99.90;;;;;;5076690;28;19908;-66
2023/12/04 11:43:27;;;;;;;;;;;21.10;99.90;;;;;;5094482;28;19912;-71
2023/12/04 11:45:54;;;;;;;;;;;21.00;99.90;;;;;;5074470;28;19912;-68
2023/12/04 11:48:24;;;;;;;;;;;21.00;99.90;;;;;;5074214;28;20277;-67
2023/12/04 11:50:51;;;;;;;;;;;20.90;99.90;;;;;;5074280;28;20463;-66
2023/12/04 11:53:17;;;;;;;;;;;20.90;99.90;;;;;;5074301;28;20395;-67
2023/12/04 11:55:44;;;;;;;;;;;20.90;99.90;;;;;;5074366;28;19920;-63
2023/12/04 11:58:11;;;;;;;;;;;20.90;99.90;;;;;;5074220;28;19913;-63
2023/12/04 12:00:38;;;;;;;;;;;21.00;99.90;;;;;;5083105;28;19988;-64
2023/12/04 12:03:06;;;;;;;;;;;20.90;99.90;;;;;;5094800;28;20269;-61
2023/12/04 12:05:34;;;;;;;;;;;21.00;99.90;;;;;;5094414;28;19934;-63
2023/12/04 12:08:04;;;;;;;;;;;20.90;99.90;;;;;;5056936;28;19913;-63
2023/12/04 12:10:31;;;;;;;;;;;21.00;99.90;;;;;;5074033;28;19994;-62
2023/12/04 12:12:58;;;;;;;;;;;20.90;99.90;;;;;;5086037;28;19959;-65
2023/12/04 12:15:25;;;;;;;;;;;20.90;99.90;;;;;;5093353;28;20276;-63
2023/12/04 12:17:52;;;;;;;;;;;20.90;99.90;;;;;;5093136;28;20018;-62
2023/12/04 12:20:20;;;;;;;;;;;20.90;99.90;;;;;;5093126;28;19912;-63
2023/12/04 12:22:48;;;;;;;;;;;20.90;99.90;;;;;;5093882;28;19908;-67
2023/12/04 12:25:15;;;;;;;;;;;20.80;99.90;;;;;;5093521;28;19909;-62
2023/12/04 12:27:42;;;;;;;;;;;20.80;99.90;;;;;;5092294;28;19927;-63
2023/12/04 12:30:09;;;;;;;;;;;20.80;99.90;;;;;;5093111;28;19919;-70
2023/12/04 12:32:36;;;;;;;;;;;20.80;99.90;;;;;;5093672;28;19915;-63
2023/12/04 12:35:07;;;;;;;;;;;20.80;99.90;;;;;;5093691;28;19962;-64
2023/12/04 12:37:34;;;;;;;;;;;20.70;99.90;;;;;;5092562;28;19931;-61
2023/12/04 12:40:04;;;;;;;;;;;20.70;99.90;;;;;;5093068;28;20274;-65
2023/12/04 12:42:33;;;;;;;;;;;20.60;99.90;;;;;;5093474;28;19930;-63
2023/12/04 12:45:01;;;;;;;;;;;20.60;99.90;;;;;;5093747;28;19908;-62
2023/12/04 12:47:27;;;;;;;;;;;20.60;99.90;;;;;;5093324;28;19912;-64
2023/12/04 12:49:54;;;;;;;;;;;20.60;99.90;;;;;;5093271;28;19916;-65
2023/12/04 12:52:21;;;;;;;;;;;20.70;99.90;;;;;;5093149;28;19962;-66
2023/12/04 12:54:47;;;;;;;;;;;20.70;99.90;;;;;;5092835;28;19912;-66
2023/12/04 12:57:14;;;;;;;;;;;20.60;99.90;;;;;;5092799;28;19973;-66
2023/12/04 12:59:41;;;;;;;;;;;20.60;99.90;;;;;;5093178;28;19915;-63
2023/12/04 13:02:08;;;;;;;;;;;20.60;99.90;;;;;;5093269;28;20348;-66
2023/12/04 13:04:38;;;;;;;;;;;20.60;99.90;;;;;;5092544;28;19912;-62
2023/12/04 13:07:06;;;;;;;;;;;20.60;99.90;;;;;;5092814;28;19916;-62
2023/12/04 13:09:36;;;;;;;;;;;20.50;99.90;;;;;;5092924;28;19908;-62
2023/12/04 13:12:04;;;;;;;;;;;20.50;99.90;;;;;;5092704;28;20262;-62
2023/12/04 13:14:31;;;;;;;;;;;20.40;99.90;;;;;;5092801;28;19915;-62
2023/12/04 13:16:57;;;;;;;;;;;20.50;99.90;;;;;;5092852;28;19916;-62
2023/12/04 13:19:24;;;;;;;;;;;20.40;99.90;;;;;;5092962;28;19965;-64
2023/12/04 13:21:51;;;;;;;;;;;20.40;99.90;;;;;;5093044;28;20003;-64
2023/12/04 13:24:17;;;;;;;;;;;20.40;99.90;;;;;;5092779;28;19909;-63
2023/12/04 13:26:44;;;;;;;;;;;20.40;99.90;;;;;;5091614;28;19966;-63
2023/12/04 13:29:12;;;;;;;;;;;20.30;99.90;;;;;;5092796;28;19998;-64
2023/12/04 13:31:38;;;;;;;;;;;20.30;99.90;;;;;;5074641;28;19908;-66
2023/12/04 13:34:06;;;;;;;;;;;20.40;99.90;;;;;;5092157;28;20416;-62
2023/12/04 13:36:36;;;;;;;;;;;20.40;99.90;;;;;;5092035;28;19916;-63
2023/12/04 13:39:04;;;;;;;;;;;20.40;99.90;;;;;;5092421;28;19914;-62
2023/12/04 13:44:18;;;;;;;;;;;20.30;99.90;;;;;;5093023;28;20015;-69
2023/12/04 13:46:47;;;;;;;;;;;20.30;99.90;;;;;;5074229;28;20403;-63
2023/12/04 13:49:13;;;;;;;;;;;20.30;99.90;;;;;;5092656;28;20002;-65
2023/12/04 13:51:40;;;;;;;;;;;20.20;99.90;;;;;;5092644;28;19942;-63
2023/12/04 13:54:20;;;;;;;;;;;20.30;99.90;;;;;;5092726;28;19908;-64
2023/12/04 13:56:58;;;;;;;;;;;20.30;99.90;;;;;;5092535;28;20019;-64
2023/12/04 13:59:26;;;;;;;;;;;20.20;99.90;;;;;;5092183;28;19930;-61
2023/12/04 14:01:59;;;;;;;;;;;20.20;99.90;;;;;;5092148;28;20400;-65
2023/12/04 14:04:27;;;;;;;;;;;20.20;99.90;;;;;;5092249;28;19908;-65
2023/12/04 14:06:53;;;;;;;;;;;20.20;99.90;;;;;;5092592;28;20345;-64
2023/12/04 14:09:20;;;;;;;;;;;20.10;99.90;;;;;;5092136;28;19908;-63
2023/12/04 14:11:47;;;;;;;;;;;20.10;99.90;;;;;;5092318;28;20449;-63
2023/12/04 14:14:14;;;;;;;;;;;20.10;99.90;;;;;;5092472;28;20345;-63
2023/12/04 14:16:41;;;;;;;;;;;20.10;99.90;;;;;;5092095;28;19920;-64
2023/12/04 14:19:08;;;;;;;;;;;20.10;99.90;;;;;;5092365;28;20384;-63